createdAt,value
2023-02-09T00:01:30.211Z,99.90
2023-02-09T00:06:23.980Z,99.90
2023-02-09T00:11:20.992Z,99.90
2023-02-09T00:16:13.849Z,99.90
2023-02-09T00:21:08.108Z,99.90
2023-02-09T00:26:04.678Z,99.90
2023-02-09T00:30:56.886Z,99.90
2023-02-09T00:35:50.262Z,99.90
2023-02-09T00:40:42.783Z,99.90
2023-02-09T00:45:35.534Z,99.90
2023-02-09T00:50:28.895Z,99.90
2023-02-09T00:55:20.975Z,99.90
2023-02-09T01:00:15.166Z,99.90
2023-02-09T01:05:08.936Z,99.90
2023-02-09T01:10:03.066Z,99.90
2023-02-09T01:14:55.372Z,99.90
2023-02-09T01:19:53.026Z,99.90
2023-02-09T01:24:45.040Z,99.90
2023-02-09T01:29:37.110Z,99.90
2023-02-09T01:34:29.382Z,99.90
2023-02-09T01:39:21.530Z,99.90
2023-02-09T01:44:14.658Z,99.90
2023-02-09T01:49:13.154Z,99.90
2023-02-09T01:54:13.102Z,99.90
2023-02-09T01:59:05.239Z,99.90
2023-02-09T02:04:02.238Z,99.90
2023-02-09T02:16:21.090Z,99.90
2023-02-09T02:21:34.462Z,99.90
2023-02-09T02:26:45.228Z,99.90
2023-02-09T02:32:05.582Z,99.90
2023-02-09T02:37:16.312Z,99.90
2023-02-09T02:42:40.143Z,99.90
2023-02-09T02:47:35.286Z,99.90
2023-02-09T02:52:27.512Z,99.90
2023-02-09T02:57:26.622Z,99.90
2023-02-09T03:02:24.485Z,99.90
2023-02-09T03:07:18.056Z,99.90
2023-02-09T03:12:39.600Z,99.90
2023-02-09T03:18:07.996Z,99.90
2023-02-09T03:23:02.934Z,99.90
2023-02-09T03:28:09.276Z,99.90
2023-02-09T03:33:03.754Z,99.90
2023-02-09T03:37:55.748Z,99.90
2023-02-09T03:42:48.325Z,99.90
2023-02-09T03:47:40.304Z,99.90
2023-02-09T03:52:32.963Z,99.90
2023-02-09T03:57:25.196Z,99.90
2023-02-09T04:02:17.207Z,99.90
2023-02-09T04:07:09.257Z,99.90
2023-02-09T04:12:01.315Z,99.90
2023-02-09T04:16:53.341Z,99.90
2023-02-09T04:21:45.407Z,99.90
2023-02-09T04:26:37.533Z,99.90
2023-02-09T04:31:29.796Z,99.90
2023-02-09T04:36:23.535Z,99.90
2023-02-09T04:41:15.608Z,99.90
2023-02-09T04:46:13.342Z,99.90
2023-02-09T04:51:05.564Z,99.90
2023-02-09T04:55:58.775Z,99.90
2023-02-09T05:00:51.308Z,99.90
2023-02-09T05:05:43.508Z,99.90
2023-02-09T05:10:37.237Z,99.90
2023-02-09T05:15:29.280Z,99.90
2023-02-09T05:20:21.787Z,99.90
2023-02-09T05:25:13.796Z,99.90
2023-02-09T05:30:07.359Z,99.90
2023-02-09T05:34:59.508Z,99.90
2023-02-09T05:39:51.658Z,99.90
2023-02-09T05:44:49.932Z,99.90
2023-02-09T05:49:42.343Z,99.90
2023-02-09T05:54:34.636Z,99.90
2023-02-09T05:59:26.777Z,99.90
2023-02-09T06:04:18.824Z,99.90
2023-02-09T06:09:11.082Z,99.90
2023-02-09T06:14:03.656Z,99.90
2023-02-09T06:18:55.677Z,99.90
2023-02-09T06:23:47.736Z,99.90
2023-02-09T06:28:40.580Z,99.90
2023-02-09T06:33:33.720Z,99.90
2023-02-09T06:38:25.837Z,99.90
2023-02-09T06:43:18.184Z,99.90
2023-02-09T06:48:10.646Z,99.90
2023-02-09T06:53:06.626Z,99.90
2023-02-09T06:57:59.141Z,99.90
2023-02-09T07:02:51.696Z,99.90
2023-02-09T07:07:44.985Z,99.90
2023-02-09T07:12:40.547Z,99.90
2023-02-09T07:17:32.614Z,99.90
2023-02-09T07:22:25.842Z,99.90
2023-02-09T07:27:18.343Z,99.90
2023-02-09T07:32:10.754Z,99.90
2023-02-09T07:37:04.243Z,99.90
2023-02-09T07:41:56.570Z,99.90
2023-02-09T07:46:48.805Z,99.90
2023-02-09T07:51:42.119Z,99.90
2023-02-09T07:56:34.137Z,99.90
2023-02-09T08:01:26.377Z,99.90
2023-02-09T08:06:41.068Z,99.90
2023-02-09T08:11:54.569Z,94.60
2023-02-09T08:16:49.548Z,86.10
2023-02-09T08:21:44.827Z,88.00
2023-02-09T08:26:36.996Z,87.00
2023-02-09T08:31:29.218Z,91.80
2023-02-09T08:36:21.760Z,94.70
2023-02-09T08:41:15.499Z,95.50
2023-02-09T08:46:13.166Z,94.20
2023-02-09T08:51:06.266Z,94.90
2023-02-09T08:55:58.411Z,98.00
2023-02-09T09:00:50.456Z,96.70
2023-02-09T09:05:42.498Z,89.70
2023-02-09T09:10:34.791Z,78.50
2023-02-09T09:15:26.823Z,74.50
2023-02-09T09:20:19.037Z,69.60
2023-02-09T09:25:11.186Z,65.70
2023-02-09T09:30:05.838Z,63.20
2023-02-09T09:34:59.618Z,63.50
2023-02-09T09:39:52.310Z,59.50
2023-02-09T09:44:47.311Z,56.70
2023-02-09T09:49:39.920Z,56.80
2023-02-09T09:54:35.114Z,57.30
2023-02-09T09:59:34.966Z,55.00
2023-02-09T10:04:29.688Z,52.90
2023-02-09T10:09:43.926Z,52.80
2023-02-09T10:14:35.853Z,51.70
2023-02-09T10:19:29.258Z,48.40
2023-02-09T10:24:31.162Z,50.60
2023-02-09T10:29:26.060Z,52.00
2023-02-09T10:34:21.491Z,50.80
2023-02-09T10:39:27.942Z,49.20
2023-02-09T10:44:30.422Z,47.90
2023-02-09T10:49:31.517Z,47.50
2023-02-09T10:54:24.882Z,47.30
2023-02-09T10:59:22.693Z,47.80
2023-02-09T11:04:23.870Z,47.80
2023-02-09T11:09:24.360Z,47.30
2023-02-09T11:14:18.882Z,46.90
2023-02-09T11:19:19.819Z,47.10
2023-02-09T11:24:53.252Z,48.00
2023-02-09T11:30:01.478Z,48.20
2023-02-09T11:35:10.833Z,46.70
2023-02-09T11:40:17.912Z,48.20
2023-02-09T11:45:31.440Z,48.70
2023-02-09T11:50:47.762Z,48.30
2023-02-09T11:55:47.174Z,49.40
2023-02-09T12:01:04.271Z,51.60
2023-02-09T12:06:02.994Z,52.60
2023-02-09T12:11:07.182Z,54.20
2023-02-09T12:16:04.569Z,57.50
2023-02-09T12:21:00.335Z,59.40
2023-02-09T12:25:55.486Z,60.80
2023-02-09T12:30:47.739Z,63.10
2023-02-09T12:35:40.927Z,65.60
2023-02-09T12:40:38.353Z,67.00
2023-02-09T12:45:37.536Z,68.40
2023-02-09T12:50:53.266Z,70.40
2023-02-09T12:56:06.516Z,72.10
2023-02-09T13:00:58.681Z,73.00
2023-02-09T13:05:51.520Z,73.40
2023-02-09T13:10:46.293Z,74.00
2023-02-09T13:15:56.142Z,74.20
2023-02-09T13:21:09.395Z,74.60
2023-02-09T13:26:15.114Z,75.20
2023-02-09T13:31:38.089Z,75.20
2023-02-09T13:36:40.000Z,77.00
2023-02-09T13:41:40.913Z,76.80
2023-02-09T13:46:35.208Z,77.00
2023-02-09T13:51:27.334Z,76.20
2023-02-09T13:56:19.333Z,76.20
2023-02-09T14:01:17.643Z,75.10
2023-02-09T14:06:21.782Z,75.60
2023-02-09T14:11:42.350Z,75.40
2023-02-09T14:16:47.993Z,75.80
2023-02-09T14:21:46.012Z,75.50
2023-02-09T14:26:58.108Z,75.80
2023-02-09T14:31:57.482Z,76.30
2023-02-09T14:36:55.198Z,76.90
2023-02-09T14:42:22.633Z,77.40
2023-02-09T14:47:40.855Z,78.00
2023-02-09T14:52:33.306Z,78.10
2023-02-09T14:57:28.371Z,78.80
2023-02-09T15:02:25.952Z,78.80
2023-02-09T15:07:22.276Z,79.50
2023-02-09T15:12:26.797Z,80.40
2023-02-09T15:17:21.465Z,81.00
2023-02-09T15:22:15.549Z,82.40
2023-02-09T15:27:27.218Z,83.20
2023-02-09T15:32:20.464Z,84.00
2023-02-09T15:37:29.655Z,85.20
2023-02-09T15:42:45.353Z,86.60
2023-02-09T15:47:49.431Z,87.60
2023-02-09T15:52:41.452Z,89.50
2023-02-09T15:57:33.564Z,90.50
2023-02-09T16:02:25.867Z,92.00
2023-02-09T16:07:24.925Z,94.40
2023-02-09T16:12:17.155Z,97.20
2023-02-09T16:17:09.174Z,99.90
2023-02-09T16:22:04.508Z,99.90
2023-02-09T16:26:59.332Z,99.90
2023-02-09T16:31:51.391Z,99.90
2023-02-09T16:36:46.060Z,99.90
2023-02-09T16:41:50.468Z,99.90
2023-02-09T16:46:43.006Z,99.90
2023-02-09T16:51:35.164Z,99.90
2023-02-09T16:56:27.537Z,99.90
2023-02-09T17:01:22.598Z,99.90
2023-02-09T17:06:33.077Z,99.90
2023-02-09T17:11:27.119Z,99.90
2023-02-09T17:16:30.759Z,99.90
2023-02-09T17:21:28.613Z,99.90
2023-02-09T17:26:21.231Z,99.90
2023-02-09T17:31:27.716Z,99.90
2023-02-09T17:36:26.825Z,99.90
2023-02-09T17:41:44.950Z,99.90
2023-02-09T17:46:37.034Z,99.90
2023-02-09T17:51:32.047Z,99.90
2023-02-09T17:56:24.065Z,99.90
2023-02-09T18:01:31.246Z,99.90
2023-02-09T18:06:33.687Z,99.90
2023-02-09T18:11:44.415Z,99.90
2023-02-09T18:16:36.579Z,99.90
2023-02-09T18:21:28.637Z,99.90
2023-02-09T18:26:20.658Z,99.90
2023-02-09T18:31:16.447Z,99.90
2023-02-09T18:36:08.850Z,99.90
2023-02-09T18:41:01.188Z,99.90
2023-02-09T18:45:53.316Z,99.90
2023-02-09T18:50:45.342Z,99.90
2023-02-09T18:55:37.558Z,99.90
2023-02-09T19:00:30.035Z,99.90
2023-02-09T19:05:21.965Z,99.90
2023-02-09T19:10:17.974Z,99.90
2023-02-09T19:15:10.122Z,99.90
2023-02-09T19:20:04.386Z,99.90
2023-02-09T19:24:57.460Z,99.90
2023-02-09T19:29:54.729Z,99.90
2023-02-09T19:34:46.901Z,99.90
2023-02-09T19:39:41.167Z,99.90
2023-02-09T19:44:33.676Z,99.90
2023-02-09T19:49:25.929Z,99.90
2023-02-09T19:54:18.482Z,99.90
2023-02-09T19:59:10.544Z,99.90
2023-02-09T20:04:02.507Z,99.90
2023-02-09T20:08:54.479Z,99.90
2023-02-09T20:13:52.187Z,99.90
2023-02-09T20:18:48.769Z,99.90
2023-02-09T20:23:40.826Z,99.90
2023-02-09T20:28:35.638Z,99.90
2023-02-09T20:33:27.777Z,99.90
2023-02-09T20:38:20.171Z,99.90
2023-02-09T20:43:31.504Z,99.90
2023-02-09T20:48:23.481Z,99.90
2023-02-09T20:53:15.509Z,99.90
2023-02-09T20:58:07.550Z,99.90
2023-02-09T21:02:59.541Z,99.90
2023-02-09T21:07:52.192Z,99.90
2023-02-09T21:12:44.167Z,99.90
2023-02-09T21:17:36.182Z,99.90
2023-02-09T21:22:28.209Z,99.90
2023-02-09T21:27:20.543Z,99.90
2023-02-09T21:32:12.574Z,99.90
2023-02-09T21:37:07.966Z,99.90
2023-02-09T21:42:18.634Z,99.90
2023-02-09T21:47:10.690Z,99.90
2023-02-09T21:52:02.644Z,99.90
2023-02-09T21:56:54.715Z,99.90
2023-02-09T22:01:46.714Z,99.90
2023-02-09T22:06:38.769Z,99.90
2023-02-09T22:11:30.784Z,99.90
2023-02-09T22:16:24.028Z,99.90
2023-02-09T22:21:16.850Z,99.90
2023-02-09T22:26:09.985Z,99.90
2023-02-09T22:31:06.882Z,99.90
2023-02-09T22:35:58.915Z,99.90
2023-02-09T22:40:50.956Z,99.90
2023-02-09T22:45:44.435Z,99.90
2023-02-09T22:50:36.572Z,99.90
2023-02-09T22:55:28.597Z,99.90
2023-02-09T23:00:20.566Z,99.90
2023-02-09T23:05:12.595Z,99.90
2023-02-09T23:10:04.840Z,99.90
2023-02-09T23:14:56.987Z,99.90
2023-02-09T23:19:51.470Z,99.90
2023-02-09T23:24:44.604Z,99.90
2023-02-09T23:29:36.579Z,99.90
2023-02-09T23:34:28.604Z,99.90
2023-02-09T23:39:22.626Z,99.90
2023-02-09T23:44:14.638Z,99.90
2023-02-09T23:49:06.734Z,99.90
2023-02-09T23:54:01.731Z,99.90
2023-02-09T23:58:54.585Z,99.90
